createdAt,value
2022-10-18T00:01:28.720Z,97.97
2022-10-18T00:03:55.128Z,98.27
2022-10-18T00:06:21.552Z,97.90
2022-10-18T00:08:47.970Z,98.34
2022-10-18T00:11:14.467Z,98.44
2022-10-18T00:13:40.968Z,98.60
2022-10-18T00:16:12.766Z,98.48
2022-10-18T00:18:39.224Z,98.64
2022-10-18T00:21:12.081Z,98.30
2022-10-18T00:23:38.755Z,98.73
2022-10-18T00:26:08.695Z,98.82
2022-10-18T00:28:36.647Z,99.11
2022-10-18T00:31:18.053Z,98.80
2022-10-18T00:33:47.302Z,98.78
2022-10-18T00:36:14.404Z,98.82
2022-10-18T00:38:41.520Z,98.85
2022-10-18T00:41:10.996Z,98.98
2022-10-18T00:44:03.531Z,98.92
2022-10-18T00:46:35.561Z,98.93
2022-10-18T00:49:06.378Z,99.06
2022-10-18T00:51:39.771Z,99.14
2022-10-18T00:54:06.398Z,98.76
2022-10-18T00:56:34.182Z,99.21
2022-10-18T00:59:00.808Z,99.17
2022-10-18T01:01:28.455Z,99.03
2022-10-18T01:03:56.009Z,98.73
2022-10-18T01:06:22.534Z,98.97
2022-10-18T01:08:51.994Z,98.97
2022-10-18T01:11:33.429Z,98.94
2022-10-18T01:14:25.852Z,99.22
2022-10-18T01:16:59.836Z,99.29
2022-10-18T01:19:43.564Z,98.91
2022-10-18T01:22:18.569Z,99.38
2022-10-18T01:25:06.079Z,98.98
2022-10-18T01:27:57.483Z,98.91
2022-10-18T01:30:23.892Z,99.31
2022-10-18T01:32:54.281Z,99.09
2022-10-18T01:35:27.701Z,99.19
2022-10-18T01:37:59.305Z,99.12
2022-10-18T01:40:26.767Z,99.52
2022-10-18T01:42:53.247Z,99.69
2022-10-18T01:45:22.079Z,99.45
2022-10-18T01:47:48.540Z,99.54
2022-10-18T01:50:15.099Z,99.89
2022-10-18T01:52:49.680Z,99.69
2022-10-18T01:55:16.705Z,99.76
2022-10-18T01:58:03.396Z,99.41
2022-10-18T02:00:40.338Z,99.21
2022-10-18T02:03:11.577Z,99.15
2022-10-18T02:06:13.020Z,99.44
2022-10-18T02:09:07.230Z,99.57
2022-10-18T02:11:36.805Z,99.50
2022-10-18T02:14:08.857Z,99.19
2022-10-18T02:16:54.467Z,99.53
2022-10-18T02:19:37.486Z,99.54
2022-10-18T02:22:05.418Z,99.75
2022-10-18T02:24:37.771Z,99.67
2022-10-18T02:27:04.838Z,99.60
2022-10-18T02:29:32.376Z,99.69
2022-10-18T02:32:08.502Z,99.33
2022-10-18T02:34:42.808Z,98.84
2022-10-18T02:37:11.689Z,99.31
2022-10-18T02:39:45.613Z,98.88
2022-10-18T02:42:12.350Z,98.82
2022-10-18T02:44:39.385Z,98.81
2022-10-18T02:47:07.493Z,99.06
2022-10-18T02:49:34.134Z,99.05
2022-10-18T02:52:00.672Z,98.76
2022-10-18T02:54:27.086Z,98.85
2022-10-18T02:56:53.500Z,98.78
2022-10-18T02:59:20.038Z,98.83
2022-10-18T03:01:46.478Z,98.93
2022-10-18T03:04:12.998Z,98.94
2022-10-18T03:06:39.413Z,98.69
2022-10-18T03:09:07.177Z,98.83
2022-10-18T03:11:33.642Z,98.82
2022-10-18T03:14:00.049Z,98.75
2022-10-18T03:16:26.537Z,98.34
2022-10-18T03:18:53.099Z,98.42
2022-10-18T03:21:19.562Z,98.33
2022-10-18T03:23:45.971Z,98.65
2022-10-18T03:26:12.409Z,98.27
2022-10-18T03:28:38.891Z,98.62
2022-10-18T03:31:05.581Z,98.30
2022-10-18T03:33:32.866Z,98.48
2022-10-18T03:35:59.792Z,98.29
2022-10-18T03:38:26.853Z,98.39
2022-10-18T03:40:53.277Z,98.13
2022-10-18T03:43:19.703Z,98.17
2022-10-18T03:45:46.267Z,98.12
2022-10-18T03:48:12.678Z,97.94
2022-10-18T03:50:39.119Z,98.08
2022-10-18T03:53:05.544Z,98.02
2022-10-18T03:55:32.032Z,97.89
2022-10-18T03:57:58.568Z,97.70
2022-10-18T04:00:25.550Z,97.61
2022-10-18T04:02:54.960Z,97.53
2022-10-18T04:05:24.154Z,97.89
2022-10-18T04:07:50.830Z,97.76
2022-10-18T04:10:18.626Z,97.62
2022-10-18T04:12:45.042Z,97.81
2022-10-18T04:15:11.504Z,97.47
2022-10-18T04:17:37.903Z,97.37
2022-10-18T04:20:04.668Z,97.21
2022-10-18T04:22:31.174Z,97.14
2022-10-18T04:24:57.637Z,97.21
2022-10-18T04:27:24.335Z,97.14
2022-10-18T04:29:50.890Z,97.01
2022-10-18T04:32:17.346Z,96.96
2022-10-18T04:37:15.124Z,96.85
2022-10-18T04:39:49.791Z,96.88
2022-10-18T04:42:19.577Z,96.64
2022-10-18T04:44:46.019Z,96.60
2022-10-18T04:47:12.445Z,96.63
2022-10-18T04:49:38.908Z,96.65
2022-10-18T04:52:05.361Z,96.44
2022-10-18T04:54:31.797Z,96.54
2022-10-18T04:56:58.195Z,96.48
2022-10-18T04:59:24.589Z,96.74
2022-10-18T05:01:51.098Z,96.67
2022-10-18T05:04:17.591Z,96.45
2022-10-18T05:06:44.014Z,96.62
2022-10-18T05:09:10.603Z,96.53
2022-10-18T05:11:37.075Z,96.58
2022-10-18T05:14:03.596Z,96.73
2022-10-18T05:16:30.052Z,96.10
2022-10-18T05:18:56.485Z,96.57
2022-10-18T05:21:22.891Z,96.50
2022-10-18T05:23:49.349Z,96.52
2022-10-18T05:26:15.806Z,96.31
2022-10-18T05:28:42.565Z,96.37
2022-10-18T05:31:11.678Z,96.43
2022-10-18T05:33:38.272Z,96.67
2022-10-18T05:36:04.781Z,96.56
2022-10-18T05:38:31.491Z,96.68
2022-10-18T05:41:04.196Z,96.85
2022-10-18T05:43:30.603Z,96.76
2022-10-18T05:45:57.302Z,96.85
2022-10-18T05:48:24.175Z,96.87
2022-10-18T05:50:50.784Z,96.75
2022-10-18T05:53:36.607Z,96.54
2022-10-18T05:56:03.992Z,96.67
2022-10-18T05:58:30.473Z,96.93
2022-10-18T06:01:01.399Z,96.77
2022-10-18T06:03:28.392Z,96.95
2022-10-18T06:06:00.205Z,97.15
2022-10-18T06:08:26.867Z,96.96
2022-10-18T06:10:53.366Z,97.00
2022-10-18T06:13:19.826Z,97.32
2022-10-18T06:15:46.554Z,97.21
2022-10-18T06:18:13.219Z,97.52
2022-10-18T06:20:39.664Z,97.39
2022-10-18T06:23:06.641Z,97.54
2022-10-18T06:25:33.024Z,97.55
2022-10-18T06:27:59.392Z,97.64
2022-10-18T06:30:25.863Z,97.64
2022-10-18T06:32:52.260Z,97.89
2022-10-18T06:35:18.714Z,97.76
2022-10-18T06:37:45.110Z,97.79
2022-10-18T06:40:11.911Z,97.86
2022-10-18T06:42:38.358Z,98.01
2022-10-18T06:45:05.255Z,98.08
2022-10-18T06:47:31.652Z,98.27
2022-10-18T06:49:58.053Z,98.11
2022-10-18T06:52:25.713Z,98.13
2022-10-18T06:54:52.844Z,98.28
2022-10-18T06:57:20.836Z,98.16
2022-10-18T06:59:47.383Z,98.23
2022-10-18T07:02:16.232Z,98.09
2022-10-18T07:04:43.336Z,98.26
2022-10-18T07:07:09.752Z,98.40
2022-10-18T07:09:36.226Z,98.40
2022-10-18T07:12:02.703Z,98.48
2022-10-18T07:14:29.357Z,98.60
2022-10-18T07:16:59.197Z,98.70
2022-10-18T07:19:25.719Z,98.86
2022-10-18T07:21:52.118Z,99.26
2022-10-18T07:24:18.562Z,99.08
2022-10-18T07:26:45.134Z,98.87
2022-10-18T07:29:12.490Z,99.21
2022-10-18T07:31:39.442Z,99.07
2022-10-18T07:34:07.391Z,99.33
2022-10-18T07:36:34.386Z,99.20
2022-10-18T07:39:00.829Z,99.14
2022-10-18T07:41:27.337Z,98.77
2022-10-18T07:43:54.122Z,98.96
2022-10-18T07:46:22.126Z,99.16
2022-10-18T07:48:48.877Z,99.35
2022-10-18T07:51:15.510Z,99.19
2022-10-18T07:53:41.990Z,99.23
2022-10-18T07:56:15.874Z,99.55
2022-10-18T07:58:44.199Z,99.49
2022-10-18T08:01:10.928Z,99.80
2022-10-18T08:03:37.901Z,100.00
2022-10-18T08:06:08.067Z,99.69
2022-10-18T08:08:34.848Z,99.93
2022-10-18T08:11:06.657Z,100.00
2022-10-18T08:13:33.652Z,99.87
2022-10-18T08:16:01.763Z,99.91
2022-10-18T08:18:28.526Z,100.00
2022-10-18T08:20:54.962Z,100.00
2022-10-18T08:23:21.559Z,100.00
2022-10-18T08:25:48.121Z,100.00
2022-10-18T08:28:14.612Z,100.00
2022-10-18T08:30:41.087Z,100.00
2022-10-18T08:33:07.503Z,100.00
2022-10-18T08:35:34.321Z,100.00
2022-10-18T08:38:00.891Z,100.00
2022-10-18T08:40:27.948Z,100.00
2022-10-18T08:43:44.041Z,100.00
2022-10-18T08:46:14.151Z,100.00
2022-10-18T08:48:45.298Z,100.00
2022-10-18T08:51:31.935Z,100.00
2022-10-18T08:54:01.280Z,100.00
2022-10-18T08:56:27.787Z,99.94
2022-10-18T08:58:54.537Z,99.96
2022-10-18T09:01:39.387Z,99.79
2022-10-18T09:04:26.064Z,99.43
2022-10-18T09:07:30.216Z,98.94
2022-10-18T09:10:16.300Z,98.77
2022-10-18T09:13:01.480Z,98.77
2022-10-18T09:15:46.196Z,98.97
2022-10-18T09:18:27.269Z,98.20
2022-10-18T09:21:05.273Z,98.33
2022-10-18T09:23:49.435Z,98.15
2022-10-18T09:26:21.001Z,97.96
2022-10-18T09:28:59.591Z,97.54
2022-10-18T09:32:00.041Z,97.44
2022-10-18T09:35:01.372Z,97.11
2022-10-18T09:37:30.661Z,96.95
2022-10-18T09:40:16.508Z,96.30
2022-10-18T09:43:20.423Z,96.14
2022-10-18T09:45:48.746Z,95.65
2022-10-18T09:48:30.654Z,93.54
2022-10-18T09:50:58.670Z,91.56
2022-10-18T09:53:35.107Z,89.97
2022-10-18T09:56:30.717Z,90.00
2022-10-18T09:58:57.164Z,88.36
2022-10-18T10:01:29.126Z,87.28
2022-10-18T10:03:56.014Z,86.63
2022-10-18T10:06:28.488Z,84.36
2022-10-18T10:09:05.254Z,82.27
2022-10-18T10:11:46.323Z,81.09
2022-10-18T10:14:14.004Z,79.96
2022-10-18T10:16:58.552Z,77.90
2022-10-18T10:19:28.813Z,76.56
2022-10-18T10:22:09.162Z,76.27
2022-10-18T10:24:53.577Z,77.49
2022-10-18T10:27:32.788Z,75.76
2022-10-18T10:30:06.707Z,75.57
2022-10-18T10:32:47.272Z,74.70
2022-10-18T10:35:56.596Z,75.85
2022-10-18T10:38:25.358Z,73.83
2022-10-18T10:40:52.468Z,73.18
2022-10-18T10:43:38.646Z,73.09
2022-10-18T10:46:09.082Z,74.18
2022-10-18T10:49:04.157Z,73.47
2022-10-18T10:51:40.135Z,71.53
2022-10-18T10:54:15.356Z,73.41
2022-10-18T10:57:11.051Z,72.28
2022-10-18T10:59:44.878Z,71.09
2022-10-18T11:02:14.485Z,70.65
2022-10-18T11:04:42.083Z,68.88
2022-10-18T11:07:27.155Z,70.63
2022-10-18T11:10:00.851Z,68.22
2022-10-18T11:12:36.123Z,67.97
2022-10-18T11:15:28.562Z,70.75
2022-10-18T11:18:19.722Z,69.54
2022-10-18T11:21:11.552Z,67.96
2022-10-18T11:23:39.887Z,68.04
2022-10-18T11:26:12.126Z,67.65
2022-10-18T11:29:01.755Z,67.27
2022-10-18T11:31:57.477Z,66.96
2022-10-18T11:34:42.146Z,67.06
2022-10-18T11:37:28.061Z,65.87
2022-10-18T11:40:08.060Z,67.80
2022-10-18T11:43:17.347Z,65.75
2022-10-18T11:45:57.543Z,65.86
2022-10-18T11:48:48.654Z,66.26
2022-10-18T11:51:34.209Z,62.73
2022-10-18T11:57:27.484Z,63.55
2022-10-18T12:03:13.757Z,64.13
2022-10-18T12:05:43.340Z,64.40
2022-10-18T12:08:15.507Z,63.53
2022-10-18T12:11:03.864Z,62.64
2022-10-18T12:13:58.835Z,62.89
2022-10-18T12:16:50.029Z,63.57
2022-10-18T12:19:27.728Z,63.48
2022-10-18T12:21:57.536Z,64.46
2022-10-18T12:24:28.771Z,63.66
2022-10-18T12:26:59.944Z,64.12
2022-10-18T12:29:51.482Z,63.36
2022-10-18T12:32:24.905Z,60.87
2022-10-18T12:34:58.125Z,63.45
2022-10-18T12:37:36.595Z,62.18
2022-10-18T12:40:14.568Z,61.75
2022-10-18T12:42:46.955Z,63.03
2022-10-18T12:45:13.328Z,62.47
2022-10-18T12:47:40.417Z,61.83
2022-10-18T12:50:28.179Z,62.96
2022-10-18T12:53:09.591Z,63.53
2022-10-18T12:55:38.622Z,61.66
2022-10-18T12:58:22.579Z,60.62
2022-10-18T13:00:49.159Z,59.57
2022-10-18T13:03:18.640Z,61.00
2022-10-18T13:05:53.361Z,61.53
2022-10-18T13:08:39.665Z,61.73
2022-10-18T13:11:09.038Z,60.78
2022-10-18T13:13:54.331Z,59.14
2022-10-18T13:16:20.773Z,59.24
2022-10-18T13:18:54.942Z,60.14
2022-10-18T13:21:29.991Z,60.33
2022-10-18T13:24:24.246Z,59.76
2022-10-18T13:27:31.096Z,59.41
2022-10-18T13:30:11.307Z,59.55
2022-10-18T13:33:06.325Z,60.71
2022-10-18T13:35:54.791Z,61.28
2022-10-18T13:38:36.244Z,62.05
2022-10-18T13:41:08.758Z,63.41
2022-10-18T13:43:53.916Z,62.81
2022-10-18T13:46:22.012Z,62.47
2022-10-18T13:48:49.497Z,61.93
2022-10-18T13:51:42.643Z,62.05
2022-10-18T13:54:12.190Z,60.67
2022-10-18T13:57:01.150Z,61.50
2022-10-18T13:59:58.060Z,60.88
2022-10-18T14:02:51.295Z,59.86
2022-10-18T14:05:36.651Z,59.59
2022-10-18T14:08:10.662Z,58.28
2022-10-18T14:11:03.479Z,59.08
2022-10-18T14:13:45.657Z,59.40
2022-10-18T14:16:29.536Z,59.19
2022-10-18T14:19:14.065Z,59.33
2022-10-18T14:21:49.183Z,61.62
2022-10-18T14:24:22.609Z,62.03
2022-10-18T14:27:19.497Z,62.69
2022-10-18T14:29:47.407Z,62.73
2022-10-18T14:32:25.892Z,64.33
2022-10-18T14:34:55.744Z,63.99
2022-10-18T14:37:35.354Z,64.33
2022-10-18T14:40:03.688Z,64.71
2022-10-18T14:42:30.350Z,64.50
2022-10-18T14:44:56.777Z,64.05
2022-10-18T14:47:25.526Z,64.29
2022-10-18T14:49:57.752Z,64.55
2022-10-18T14:52:35.120Z,64.26
2022-10-18T14:55:02.325Z,64.00
2022-10-18T14:57:34.918Z,64.06
2022-10-18T15:00:05.582Z,63.47
2022-10-18T15:02:35.334Z,63.80
2022-10-18T15:05:17.557Z,64.49
2022-10-18T15:07:44.818Z,65.30
2022-10-18T15:10:20.610Z,64.63
2022-10-18T15:13:08.823Z,65.44
2022-10-18T15:15:35.594Z,64.58
2022-10-18T15:18:02.408Z,64.90
2022-10-18T15:20:42.278Z,65.04
2022-10-18T15:23:23.052Z,65.61
2022-10-18T15:25:52.573Z,65.49
2022-10-18T15:28:27.074Z,64.67
2022-10-18T15:30:53.873Z,64.98
2022-10-18T15:33:23.497Z,65.49
2022-10-18T15:35:52.866Z,65.80
2022-10-18T15:38:36.628Z,67.40
2022-10-18T15:41:23.244Z,67.86
2022-10-18T15:43:50.187Z,68.61
2022-10-18T15:46:32.033Z,69.24
2022-10-18T15:49:24.361Z,69.65
2022-10-18T15:52:49.569Z,70.18
2022-10-18T15:55:31.149Z,70.63
2022-10-18T15:58:05.694Z,71.47
2022-10-18T16:00:32.224Z,71.34
2022-10-18T16:02:58.624Z,71.88
2022-10-18T16:05:25.730Z,71.67
2022-10-18T16:07:52.621Z,71.86
2022-10-18T16:10:19.226Z,72.21
2022-10-18T16:12:45.820Z,72.49
2022-10-18T16:15:12.371Z,72.97
2022-10-18T16:17:38.845Z,73.33
2022-10-18T16:20:06.209Z,73.53
2022-10-18T16:22:34.807Z,74.21
2022-10-18T16:25:04.753Z,74.31
2022-10-18T16:27:31.167Z,74.88
2022-10-18T16:29:57.715Z,74.63
2022-10-18T16:32:24.134Z,75.40
2022-10-18T16:34:50.599Z,75.70
2022-10-18T16:37:16.986Z,75.95
2022-10-18T16:39:43.370Z,76.29
2022-10-18T16:42:09.820Z,76.71
2022-10-18T16:44:36.216Z,77.47
2022-10-18T16:47:02.912Z,77.32
2022-10-18T16:49:29.360Z,77.80
2022-10-18T16:51:55.803Z,78.05
2022-10-18T16:54:22.793Z,78.05
2022-10-18T16:56:50.115Z,78.68
2022-10-18T16:59:29.211Z,78.36
2022-10-18T17:01:55.897Z,78.83
2022-10-18T17:04:22.412Z,79.09
2022-10-18T17:06:49.208Z,79.33
2022-10-18T17:09:16.098Z,79.13
2022-10-18T17:11:42.783Z,79.33
2022-10-18T17:14:09.284Z,79.34
2022-10-18T17:16:37.196Z,79.36
2022-10-18T17:19:07.183Z,79.79
2022-10-18T17:21:33.700Z,79.45
2022-10-18T17:24:04.396Z,79.86
2022-10-18T17:26:31.505Z,80.10
2022-10-18T17:29:01.101Z,79.88
2022-10-18T17:31:28.687Z,79.85
2022-10-18T17:33:55.404Z,80.34
2022-10-18T17:36:22.337Z,80.10
2022-10-18T17:38:53.360Z,79.94
2022-10-18T17:41:20.379Z,80.32
2022-10-18T17:43:48.259Z,79.77
2022-10-18T17:46:15.890Z,80.15
2022-10-18T17:48:42.864Z,80.02
2022-10-18T17:51:11.465Z,80.35
2022-10-18T17:53:37.983Z,80.16
2022-10-18T17:56:05.506Z,80.22
2022-10-18T17:58:32.061Z,80.25
2022-10-18T18:01:08.666Z,80.40
2022-10-18T18:03:35.123Z,80.60
2022-10-18T18:06:11.696Z,80.75
2022-10-18T18:08:38.101Z,80.81
2022-10-18T18:11:04.601Z,80.77
2022-10-18T18:13:31.013Z,81.24
2022-10-18T18:15:57.505Z,81.03
2022-10-18T18:18:23.948Z,81.38
2022-10-18T18:20:54.535Z,81.30
2022-10-18T18:23:21.746Z,81.34
2022-10-18T18:25:58.227Z,81.08
2022-10-18T18:28:24.765Z,81.14
2022-10-18T18:30:51.326Z,81.14
2022-10-18T18:33:17.744Z,81.47
2022-10-18T18:35:44.186Z,81.24
2022-10-18T18:38:10.584Z,81.04
2022-10-18T18:40:36.989Z,81.37
2022-10-18T18:43:19.008Z,81.05
2022-10-18T18:45:52.180Z,81.19
2022-10-18T18:48:19.908Z,81.58
2022-10-18T18:50:50.502Z,81.86
2022-10-18T18:53:17.230Z,81.74
2022-10-18T18:55:43.657Z,81.97
2022-10-18T18:58:11.272Z,82.24
2022-10-18T19:00:43.389Z,82.17
2022-10-18T19:03:12.121Z,82.10
2022-10-18T19:05:38.836Z,82.05
2022-10-18T19:08:05.685Z,82.41
2022-10-18T19:10:32.271Z,82.90
2022-10-18T19:12:59.083Z,82.83
2022-10-18T19:15:25.608Z,83.17
2022-10-18T19:17:52.023Z,82.57
2022-10-18T19:20:18.538Z,82.39
2022-10-18T19:22:45.582Z,82.82
2022-10-18T19:25:12.008Z,82.73
2022-10-18T19:27:38.502Z,82.89
2022-10-18T19:30:09.319Z,83.26
2022-10-18T19:32:35.823Z,82.99
2022-10-18T19:35:02.240Z,82.96
2022-10-18T19:37:28.645Z,83.50
2022-10-18T19:39:55.079Z,83.59
2022-10-18T19:42:24.193Z,83.27
2022-10-18T19:44:52.863Z,83.48
2022-10-18T19:47:20.432Z,83.22
2022-10-18T19:49:47.950Z,83.12
2022-10-18T19:52:14.486Z,83.62
2022-10-18T19:54:41.107Z,83.67
2022-10-18T19:57:07.675Z,83.53
2022-10-18T19:59:35.940Z,83.40
2022-10-18T20:02:04.640Z,83.48
2022-10-18T20:04:34.495Z,83.57
2022-10-18T20:07:02.682Z,83.87
2022-10-18T20:09:29.742Z,83.93
2022-10-18T20:11:56.275Z,84.14
2022-10-18T20:14:22.822Z,84.25
2022-10-18T20:16:49.258Z,84.47
2022-10-18T20:19:15.736Z,83.83
2022-10-18T20:21:42.290Z,83.97
2022-10-18T20:24:09.481Z,83.78
2022-10-18T20:26:36.267Z,83.20
2022-10-18T20:29:03.902Z,83.99
2022-10-18T20:31:33.774Z,84.00
2022-10-18T20:34:02.573Z,84.33
2022-10-18T20:36:30.922Z,83.82
2022-10-18T20:38:58.018Z,83.77
2022-10-18T20:41:31.172Z,83.82
2022-10-18T20:44:00.880Z,84.00
2022-10-18T20:46:30.820Z,84.03
2022-10-18T20:48:57.220Z,83.83
2022-10-18T20:51:23.948Z,83.84
2022-10-18T20:53:50.938Z,83.84
2022-10-18T20:56:20.468Z,84.20
2022-10-18T20:58:48.720Z,84.02
2022-10-18T21:01:17.172Z,84.17
2022-10-18T21:03:46.305Z,83.39
2022-10-18T21:06:27.553Z,83.83
2022-10-18T21:08:54.610Z,84.30
2022-10-18T21:11:21.900Z,84.56
2022-10-18T21:14:04.909Z,83.82
2022-10-18T21:16:32.843Z,84.10
2022-10-18T21:19:24.205Z,84.28
2022-10-18T21:21:54.307Z,83.66
2022-10-18T21:24:23.266Z,84.05
2022-10-18T21:26:49.923Z,84.14
2022-10-18T21:29:21.680Z,84.02
2022-10-18T21:31:48.827Z,83.91
2022-10-18T21:34:17.451Z,84.18
2022-10-18T21:36:46.351Z,84.72
2022-10-18T21:39:15.627Z,84.82
2022-10-18T21:41:42.852Z,85.00
2022-10-18T21:44:10.800Z,84.70
2022-10-18T21:46:39.335Z,85.09
2022-10-18T21:49:07.030Z,85.09
2022-10-18T21:51:33.464Z,85.32
2022-10-18T21:53:59.875Z,85.19
2022-10-18T21:56:29.380Z,85.20
2022-10-18T21:58:56.609Z,85.82
2022-10-18T22:01:25.908Z,85.53
2022-10-18T22:03:54.823Z,84.67
2022-10-18T22:06:22.449Z,85.04
2022-10-18T22:08:54.523Z,85.04
2022-10-18T22:11:24.785Z,85.03
2022-10-18T22:13:52.610Z,84.72
2022-10-18T22:16:19.078Z,84.57
2022-10-18T22:18:46.994Z,84.22
2022-10-18T22:21:16.034Z,84.85
2022-10-18T22:23:43.745Z,84.67
2022-10-18T22:26:11.458Z,84.76
2022-10-18T22:28:39.560Z,85.26
2022-10-18T22:31:06.556Z,85.28
2022-10-18T22:33:32.994Z,85.64
2022-10-18T22:35:59.484Z,86.09
2022-10-18T22:38:25.900Z,85.40
2022-10-18T22:40:52.294Z,85.60
2022-10-18T22:43:18.941Z,85.38
2022-10-18T22:45:45.309Z,86.44
2022-10-18T22:48:11.777Z,86.20
2022-10-18T22:50:38.182Z,86.47
2022-10-18T22:53:04.565Z,86.82
2022-10-18T22:55:30.981Z,86.72
2022-10-18T22:57:57.381Z,87.04
2022-10-18T23:00:23.849Z,86.74
2022-10-18T23:02:50.340Z,86.42
2022-10-18T23:05:16.867Z,86.57
2022-10-18T23:07:48.899Z,87.32
2022-10-18T23:10:15.549Z,86.50
2022-10-18T23:12:41.945Z,86.77
2022-10-18T23:15:08.774Z,87.42
2022-10-18T23:17:35.532Z,87.28
2022-10-18T23:20:02.319Z,87.21
2022-10-18T23:22:28.709Z,87.05
2022-10-18T23:24:55.106Z,87.21
2022-10-18T23:27:21.560Z,87.55
2022-10-18T23:29:47.968Z,87.00
2022-10-18T23:32:14.398Z,87.26
2022-10-18T23:34:40.800Z,87.47
2022-10-18T23:37:07.233Z,87.52
2022-10-18T23:39:33.625Z,87.80
2022-10-18T23:41:59.992Z,87.71
2022-10-18T23:44:26.405Z,87.82
2022-10-18T23:46:52.818Z,88.10
2022-10-18T23:49:19.306Z,87.57
2022-10-18T23:51:45.739Z,88.04
2022-10-18T23:54:12.161Z,88.32
2022-10-18T23:56:38.577Z,87.52
2022-10-18T23:59:04.964Z,88.23
